Time;durP1;ratioP1;P1;durP2;ratioP2;P2;SDS_P1;SDS_P2;PMS_P1;PMS_P2;Temp;Humidity;BMP_temperature;BMP_pressure;BME280_temperature;BME280_humidity;BME280_pressure;Samples;Min_cycle;Max_cycle;Signal;HPM_P1;HPM_P2
2023/04/19 00:02:22;;;;;;;4.32;2.90;;;;;;;;;;4973238;28;20041;-71
2023/04/19 00:04:48;;;;;;;6.15;3.03;;;;;;;;;;4973078;28;20117;-70
2023/04/19 00:07:13;;;;;;;8.15;3.35;;;;;;;;;;4973119;28;20106;-71
2023/04/19 00:09:38;;;;;;;5.30;3.20;;;;;;;;;;4972944;28;20050;-71
2023/04/19 00:12:04;;;;;;;4.43;2.72;;;;;;;;;;4973031;28;20031;-70
2023/04/19 00:14:29;;;;;;;4.00;2.92;;;;;;;;;;4972918;28;20494;-70
2023/04/19 00:16:55;;;;;;;4.05;2.55;;;;;;;;;;4972884;28;20517;-70
2023/04/19 00:19:22;;;;;;;4.40;3.03;;;;;;;;;;4972746;28;20062;-72
2023/04/19 00:21:47;;;;;;;4.22;2.90;;;;;;;;;;4972665;28;20490;-72
2023/04/19 00:24:13;;;;;;;4.55;2.70;;;;;;;;;;4972759;28;20037;-72
2023/04/19 00:26:38;;;;;;;4.65;2.90;;;;;;;;;;4972877;28;20027;-71
2023/04/19 00:29:03;;;;;;;3.85;2.85;;;;;;;;;;4972508;28;20138;-72
2023/04/19 00:31:29;;;;;;;4.78;3.35;;;;;;;;;;4972588;28;20040;-71
2023/04/19 00:33:55;;;;;;;5.75;2.80;;;;;;;;;;4987182;28;20505;-71
2023/04/19 00:36:20;;;;;;;4.15;2.90;;;;;;;;;;4972508;28;20037;-71
2023/04/19 00:38:46;;;;;;;4.93;2.90;;;;;;;;;;4972530;28;20019;-71
2023/04/19 00:41:11;;;;;;;5.72;3.20;;;;;;;;;;4972422;28;20399;-71
2023/04/19 00:43:37;;;;;;;4.43;2.90;;;;;;;;;;4972501;28;20108;-71
2023/04/19 00:46:02;;;;;;;4.63;3.20;;;;;;;;;;4971945;28;20038;-71
2023/04/19 00:48:29;;;;;;;6.30;3.10;;;;;;;;;;4972251;28;20075;-71
2023/04/19 00:50:55;;;;;;;4.65;3.17;;;;;;;;;;4972182;28;20030;-72
2023/04/19 00:53:20;;;;;;;6.43;3.33;;;;;;;;;;4972315;28;20052;-72
2023/04/19 00:55:46;;;;;;;7.03;3.35;;;;;;;;;;4972162;28;20050;-71
2023/04/19 00:58:12;;;;;;;4.82;3.08;;;;;;;;;;4970887;28;20037;-71
2023/04/19 01:00:37;;;;;;;5.47;2.83;;;;;;;;;;4970867;28;20137;-71
2023/04/19 01:03:03;;;;;;;5.13;3.28;;;;;;;;;;4972202;28;20026;-71
2023/04/19 01:05:29;;;;;;;5.30;2.80;;;;;;;;;;4971785;28;20037;-71
2023/04/19 01:07:55;;;;;;;7.40;3.35;;;;;;;;;;4971924;28;20023;-71
2023/04/19 01:10:20;;;;;;;4.32;3.10;;;;;;;;;;4971789;28;20042;-71
2023/04/19 01:12:46;;;;;;;4.30;3.03;;;;;;;;;;4971969;28;20031;-71
2023/04/19 01:15:11;;;;;;;4.25;2.97;;;;;;;;;;4970045;28;20027;-71
2023/04/19 01:17:37;;;;;;;5.53;2.80;;;;;;;;;;4971910;28;20037;-71
2023/04/19 01:20:07;;;;;;;6.35;3.20;;;;;;;;;;4971956;28;20538;-71
2023/04/19 01:22:39;;;;;;;4.90;3.00;;;;;;;;;;4971558;28;20086;-71
2023/04/19 01:25:06;;;;;;;6.43;3.40;;;;;;;;;;4971575;28;20035;-71
2023/04/19 01:27:31;;;;;;;5.30;3.40;;;;;;;;;;4971378;28;20380;-71
2023/04/19 01:29:57;;;;;;;4.65;3.20;;;;;;;;;;4970256;28;20118;-71
2023/04/19 01:32:24;;;;;;;4.88;3.10;;;;;;;;;;4970318;28;20684;-71
2023/04/19 01:34:51;;;;;;;6.63;3.13;;;;;;;;;;4969891;28;20039;-70
2023/04/19 01:37:16;;;;;;;5.93;3.00;;;;;;;;;;4971548;28;20054;-71
2023/04/19 01:39:42;;;;;;;5.03;3.45;;;;;;;;;;4970143;28;20568;-71
2023/04/19 01:42:07;;;;;;;7.70;3.13;;;;;;;;;;4971344;28;20035;-71
2023/04/19 01:44:32;;;;;;;6.38;2.88;;;;;;;;;;4986027;28;20034;-71
2023/04/19 01:46:58;;;;;;;6.72;3.08;;;;;;;;;;4971158;28;20030;-71
2023/04/19 01:49:23;;;;;;;6.38;3.15;;;;;;;;;;4971338;28;20392;-71
2023/04/19 01:51:49;;;;;;;5.22;3.17;;;;;;;;;;4971191;28;20058;-71
2023/04/19 01:54:14;;;;;;;6.03;2.88;;;;;;;;;;4971317;28;20026;-70
2023/04/19 01:56:40;;;;;;;4.60;3.03;;;;;;;;;;4985862;28;20047;-70
2023/04/19 01:59:05;;;;;;;4.20;2.97;;;;;;;;;;4971138;28;20031;-70
2023/04/19 02:01:31;;;;;;;4.40;2.90;;;;;;;;;;4971032;28;20035;-72
2023/04/19 02:03:56;;;;;;;5.10;2.80;;;;;;;;;;4971108;28;20030;-71
2023/04/19 02:06:21;;;;;;;4.25;2.70;;;;;;;;;;4970750;28;20031;-71
2023/04/19 02:08:47;;;;;;;4.57;3.08;;;;;;;;;;4970990;28;20114;-71
2023/04/19 02:11:15;;;;;;;3.75;2.65;;;;;;;;;;4985791;28;20200;-71
2023/04/19 02:13:41;;;;;;;4.63;2.95;;;;;;;;;;4970996;28;20049;-71
2023/04/19 02:16:07;;;;;;;6.90;2.88;;;;;;;;;;4970648;28;20378;-71
2023/04/19 02:18:37;;;;;;;5.35;2.92;;;;;;;;;;4970584;28;20031;-71
2023/04/19 02:21:03;;;;;;;4.47;2.92;;;;;;;;;;4970640;28;20041;-71
2023/04/19 02:23:29;;;;;;;3.83;2.85;;;;;;;;;;4970862;28;20027;-71
2023/04/19 02:25:54;;;;;;;5.90;2.75;;;;;;;;;;4969722;28;20023;-71
2023/04/19 02:28:19;;;;;;;5.22;2.80;;;;;;;;;;4970610;28;20109;-71
2023/04/19 02:30:45;;;;;;;4.70;2.90;;;;;;;;;;4970707;28;20039;-71
2023/04/19 02:33:11;;;;;;;4.28;2.90;;;;;;;;;;4970503;28;20486;-71
2023/04/19 02:35:37;;;;;;;4.82;2.70;;;;;;;;;;4970264;28;20031;-71
2023/04/19 02:38:03;;;;;;;5.18;3.05;;;;;;;;;;4970464;28;20081;-71
2023/04/19 02:40:29;;;;;;;4.65;2.90;;;;;;;;;;4970618;28;20102;-71
2023/04/19 02:42:55;;;;;;;5.57;2.92;;;;;;;;;;4970433;28;20030;-71
2023/04/19 02:45:20;;;;;;;4.25;2.80;;;;;;;;;;4970343;28;20037;-71
2023/04/19 02:47:45;;;;;;;4.18;2.53;;;;;;;;;;4970442;28;20035;-71
2023/04/19 02:50:12;;;;;;;4.28;2.75;;;;;;;;;;4970449;28;20045;-71
2023/04/19 02:52:38;;;;;;;3.88;2.70;;;;;;;;;;4970278;28;20038;-71
2023/04/19 02:55:04;;;;;;;4.35;2.80;;;;;;;;;;4985079;28;20119;-71
2023/04/19 02:57:30;;;;;;;4.53;2.90;;;;;;;;;;4970147;28;20031;-71
2023/04/19 02:59:55;;;;;;;4.13;2.83;;;;;;;;;;4970432;28;20033;-71
2023/04/19 03:02:20;;;;;;;4.10;2.80;;;;;;;;;;4970319;28;20101;-71
2023/04/19 03:04:46;;;;;;;4.28;2.60;;;;;;;;;;4970385;28;20022;-71
2023/04/19 03:07:12;;;;;;;4.40;2.80;;;;;;;;;;4970031;28;20073;-71
2023/04/19 03:09:38;;;;;;;3.65;2.50;;;;;;;;;;4970296;28;20034;-73
2023/04/19 03:12:04;;;;;;;3.60;2.53;;;;;;;;;;4970179;28;20118;-70
2023/04/19 03:14:29;;;;;;;4.47;2.85;;;;;;;;;;4970236;28;20059;-71
2023/04/19 03:16:55;;;;;;;5.03;2.50;;;;;;;;;;4970049;28;20587;-71
2023/04/19 03:19:20;;;;;;;3.60;2.70;;;;;;;;;;4970282;28;20023;-71
2023/04/19 03:21:47;;;;;;;5.30;2.85;;;;;;;;;;4970067;28;20058;-72
2023/04/19 03:24:12;;;;;;;4.03;2.45;;;;;;;;;;4970235;28;20034;-71
2023/04/19 03:26:37;;;;;;;3.97;2.63;;;;;;;;;;4969988;28;20035;-71
2023/04/19 03:29:03;;;;;;;5.70;2.80;;;;;;;;;;4969855;28;20083;-71
2023/04/19 03:31:29;;;;;;;4.20;2.70;;;;;;;;;;4969985;28;20038;-71
2023/04/19 03:33:54;;;;;;;6.53;2.63;;;;;;;;;;4984862;28;20026;-71
2023/04/19 03:36:20;;;;;;;4.53;2.80;;;;;;;;;;4970045;28;20150;-71
2023/04/19 03:38:45;;;;;;;4.25;2.70;;;;;;;;;;4973756;28;20085;-71
2023/04/19 03:41:22;;;;;;;3.83;2.70;;;;;;;;;;4973674;28;20066;-71
2023/04/19 03:43:48;;;;;;;3.67;2.40;;;;;;;;;;4973740;28;20160;-71
2023/04/19 03:46:13;;;;;;;4.18;2.60;;;;;;;;;;4973420;28;20120;-70
2023/04/19 03:48:39;;;;;;;4.30;2.72;;;;;;;;;;4973327;28;20026;-71
2023/04/19 03:51:04;;;;;;;4.25;2.55;;;;;;;;;;4973437;28;20027;-71
2023/04/19 03:53:30;;;;;;;4.03;2.90;;;;;;;;;;4973549;28;20433;-71
2023/04/19 03:55:55;;;;;;;5.40;3.10;;;;;;;;;;4973255;28;20644;-71
2023/04/19 03:58:21;;;;;;;5.20;3.22;;;;;;;;;;4973342;28;20027;-71
2023/04/19 04:00:46;;;;;;;4.07;2.88;;;;;;;;;;4973236;28;20611;-70
2023/04/19 04:03:12;;;;;;;4.80;3.08;;;;;;;;;;4973431;28;20053;-71
2023/04/19 04:05:37;;;;;;;6.47;3.05;;;;;;;;;;4972822;28;20526;-70
2023/04/19 04:08:02;;;;;;;5.55;3.15;;;;;;;;;;4973084;28;20073;-71
2023/04/19 04:10:28;;;;;;;6.22;2.80;;;;;;;;;;4973192;28;20548;-71
2023/04/19 04:12:53;;;;;;;4.45;3.08;;;;;;;;;;4973239;28;20202;-71
2023/04/19 04:15:19;;;;;;;4.35;3.00;;;;;;;;;;4973042;28;20471;-71
2023/04/19 04:17:44;;;;;;;5.07;3.00;;;;;;;;;;4971531;28;20218;-71
2023/04/19 04:20:12;;;;;;;5.38;3.40;;;;;;;;;;4973028;28;20037;-71
2023/04/19 04:22:47;;;;;;;4.57;3.00;;;;;;;;;;4972555;28;20038;-71
2023/04/19 04:25:14;;;;;;;5.20;3.00;;;;;;;;;;4972893;28;20031;-71
2023/04/19 04:27:41;;;;;;;6.30;2.88;;;;;;;;;;4972514;28;20089;-71
2023/04/19 04:30:08;;;;;;;4.97;2.95;;;;;;;;;;4972780;28;20528;-71
2023/04/19 04:32:37;;;;;;;5.47;2.90;;;;;;;;;;4972791;28;20121;-71
2023/04/19 04:35:03;;;;;;;4.82;2.92;;;;;;;;;;4972624;28;20034;-71
2023/04/19 04:37:32;;;;;;;4.28;2.90;;;;;;;;;;4972225;28;20023;-71
2023/04/19 04:39:58;;;;;;;4.47;3.03;;;;;;;;;;4972338;28;20529;-71
2023/04/19 04:42:24;;;;;;;4.20;3.00;;;;;;;;;;4972571;28;20031;-71
2023/04/19 04:44:49;;;;;;;5.38;3.03;;;;;;;;;;4971199;28;20085;-71
2023/04/19 04:47:16;;;;;;;5.45;3.42;;;;;;;;;;4972201;28;20100;-71
2023/04/19 04:49:41;;;;;;;4.50;3.20;;;;;;;;;;4971544;28;20098;-71
2023/04/19 04:52:07;;;;;;;5.20;3.45;;;;;;;;;;4972145;28;20062;-71
2023/04/19 04:54:33;;;;;;;5.07;3.33;;;;;;;;;;4972301;28;20027;-71
2023/04/19 04:56:58;;;;;;;4.90;3.50;;;;;;;;;;4970414;28;20038;-71
2023/04/19 04:59:24;;;;;;;5.40;3.38;;;;;;;;;;4986899;28;20110;-71
2023/04/19 05:01:49;;;;;;;5.25;3.45;;;;;;;;;;4972111;28;20158;-71
2023/04/19 05:04:15;;;;;;;6.35;3.40;;;;;;;;;;4972229;28;20066;-71
2023/04/19 05:06:40;;;;;;;5.65;3.58;;;;;;;;;;4971851;28;20434;-71
2023/04/19 05:09:06;;;;;;;5.30;3.53;;;;;;;;;;4971963;28;20117;-71
2023/04/19 05:11:32;;;;;;;6.55;3.53;;;;;;;;;;4972109;28;20027;-71
2023/04/19 05:13:58;;;;;;;5.68;3.78;;;;;;;;;;4971901;28;20406;-71
2023/04/19 05:16:25;;;;;;;6.78;3.90;;;;;;;;;;4971684;28;20046;-71
2023/04/19 05:18:50;;;;;;;7.40;3.85;;;;;;;;;;4971814;28;20022;-71
2023/04/19 05:21:16;;;;;;;6.47;4.22;;;;;;;;;;4971553;28;20031;-71
2023/04/19 05:23:41;;;;;;;5.70;3.55;;;;;;;;;;4971755;28;20033;-71
2023/04/19 05:26:06;;;;;;;5.28;3.45;;;;;;;;;;4971662;28;20038;-71
2023/04/19 05:28:32;;;;;;;8.15;4.03;;;;;;;;;;4971585;28;20045;-71
2023/04/19 05:30:57;;;;;;;5.85;3.90;;;;;;;;;;4971528;28;20030;-71
2023/04/19 05:33:23;;;;;;;6.30;4.30;;;;;;;;;;4986267;28;20118;-71
2023/04/19 05:35:48;;;;;;;6.35;4.00;;;;;;;;;;4971403;28;20084;-71
2023/04/19 05:38:13;;;;;;;5.72;3.90;;;;;;;;;;4971497;28;20386;-71
2023/04/19 05:40:39;;;;;;;5.55;4.32;;;;;;;;;;4971444;28;20027;-71
2023/04/19 05:43:05;;;;;;;7.63;4.25;;;;;;;;;;4971380;28;20034;-71
2023/04/19 05:45:30;;;;;;;7.30;4.30;;;;;;;;;;4971492;28;20038;-71
2023/04/19 05:47:55;;;;;;;7.97;4.45;;;;;;;;;;4970961;28;20123;-70
2023/04/19 05:50:21;;;;;;;6.28;4.10;;;;;;;;;;4971324;28;20034;-70
2023/04/19 05:52:46;;;;;;;6.88;4.13;;;;;;;;;;4971031;28;20030;-70
2023/04/19 05:55:12;;;;;;;5.55;4.07;;;;;;;;;;4971088;28;20026;-70
2023/04/19 05:57:37;;;;;;;6.13;4.07;;;;;;;;;;4970920;28;20092;-70
2023/04/19 06:00:04;;;;;;;10.68;3.95;;;;;;;;;;4971040;28;20055;-70
2023/04/19 06:02:29;;;;;;;7.07;3.85;;;;;;;;;;4971045;28;20050;-70
2023/04/19 06:04:56;;;;;;;5.22;3.60;;;;;;;;;;4971130;28;20031;-70
2023/04/19 06:07:22;;;;;;;6.63;3.53;;;;;;;;;;4970479;28;20030;-70
2023/04/19 06:09:47;;;;;;;7.90;3.80;;;;;;;;;;4970871;28;20161;-70
2023/04/19 06:12:13;;;;;;;5.65;3.60;;;;;;;;;;4970946;28;20030;-70
2023/04/19 06:14:38;;;;;;;7.00;3.65;;;;;;;;;;4970775;28;20026;-71
2023/04/19 06:17:04;;;;;;;7.85;3.85;;;;;;;;;;4970632;28;20120;-70
2023/04/19 06:19:32;;;;;;;7.13;3.90;;;;;;;;;;4970912;28;20027;-71
2023/04/19 06:21:59;;;;;;;6.95;3.65;;;;;;;;;;4970605;28;20038;-71
2023/04/19 06:24:24;;;;;;;6.50;3.97;;;;;;;;;;4970789;28;20405;-71
2023/04/19 06:26:50;;;;;;;7.47;3.50;;;;;;;;;;4970447;28;20482;-71
2023/04/19 06:29:16;;;;;;;6.32;3.55;;;;;;;;;;4969006;28;20058;-71
2023/04/19 06:31:41;;;;;;;7.53;3.85;;;;;;;;;;4970618;28;20581;-71
2023/04/19 06:34:07;;;;;;;7.05;3.50;;;;;;;;;;4969116;28;20058;-71
2023/04/19 06:36:32;;;;;;;4.95;3.45;;;;;;;;;;4970590;28;20027;-71
2023/04/19 06:38:58;;;;;;;6.60;3.53;;;;;;;;;;4970751;28;20105;-71
2023/04/19 06:41:23;;;;;;;5.95;3.60;;;;;;;;;;4970366;28;20034;-71
2023/04/19 06:43:49;;;;;;;6.07;3.78;;;;;;;;;;4970528;28;20027;-71
2023/04/19 06:46:14;;;;;;;5.70;3.72;;;;;;;;;;4985279;28;20034;-71
2023/04/19 06:48:40;;;;;;;4.70;3.28;;;;;;;;;;4970451;28;20060;-71
2023/04/19 06:51:05;;;;;;;5.63;3.30;;;;;;;;;;4985205;28;20055;-71
2023/04/19 06:53:30;;;;;;;5.03;3.10;;;;;;;;;;4970351;28;20439;-71
2023/04/19 06:56:00;;;;;;;5.40;3.58;;;;;;;;;;4985325;28;20035;-70
2023/04/19 06:58:27;;;;;;;4.95;3.42;;;;;;;;;;4970197;28;20717;-71
2023/04/19 07:00:52;;;;;;;4.70;3.40;;;;;;;;;;4970383;28;20054;-71
2023/04/19 07:03:18;;;;;;;5.65;3.38;;;;;;;;;;4970333;28;20390;-71
2023/04/19 07:05:43;;;;;;;4.95;3.50;;;;;;;;;;4970087;28;20030;-72
2023/04/19 07:08:09;;;;;;;4.53;3.42;;;;;;;;;;4970240;28;20115;-71
2023/04/19 07:10:34;;;;;;;8.82;3.33;;;;;;;;;;4970354;28;20614;-71
2023/04/19 07:13:00;;;;;;;6.22;3.42;;;;;;;;;;4973220;28;20026;-71
2023/04/19 07:15:25;;;;;;;14.02;4.45;;;;;;;;;;4974035;28;20027;-71
2023/04/19 07:17:51;;;;;;;17.63;4.25;;;;;;;;;;4973840;28;20077;-71
2023/04/19 07:20:16;;;;;;;10.50;3.90;;;;;;;;;;4973903;28;20030;-70
2023/04/19 07:22:41;;;;;;;14.82;4.25;;;;;;;;;;4973627;28;20654;-71
2023/04/19 07:25:07;;;;;;;20.85;4.38;;;;;;;;;;4973965;28;20027;-71
2023/04/19 07:27:33;;;;;;;10.73;3.20;;;;;;;;;;4973677;28;20751;-71
2023/04/19 07:29:58;;;;;;;8.15;3.70;;;;;;;;;;4973893;28;20502;-71
2023/04/19 07:32:23;;;;;;;5.53;3.13;;;;;;;;;;4973709;28;20063;-71
2023/04/19 07:34:50;;;;;;;7.85;3.28;;;;;;;;;;4988526;28;20027;-71
2023/04/19 07:37:16;;;;;;;5.28;3.30;;;;;;;;;;4973296;28;20026;-71
2023/04/19 07:39:41;;;;;;;5.80;3.17;;;;;;;;;;4973702;28;20523;-71
2023/04/19 07:42:07;;;;;;;5.25;3.13;;;;;;;;;;4973565;28;20182;-71
2023/04/19 07:44:32;;;;;;;7.68;3.33;;;;;;;;;;4973580;28;20030;-71
2023/04/19 07:46:57;;;;;;;5.97;3.20;;;;;;;;;;4973278;28;20019;-71
2023/04/19 07:49:23;;;;;;;8.05;3.08;;;;;;;;;;4973423;28;20027;-71
2023/04/19 07:51:48;;;;;;;5.47;2.80;;;;;;;;;;4973206;28;20015;-71
2023/04/19 07:54:19;;;;;;;6.22;2.90;;;;;;;;;;4973435;28;20434;-71
2023/04/19 07:56:44;;;;;;;5.15;2.70;;;;;;;;;;4973373;28;20105;-71
2023/04/19 07:59:10;;;;;;;6.30;2.85;;;;;;;;;;4973103;28;20511;-71
2023/04/19 08:01:35;;;;;;;6.00;3.25;;;;;;;;;;4973169;28;20118;-71
2023/04/19 08:04:01;;;;;;;5.65;3.20;;;;;;;;;;4973314;28;20470;-71
2023/04/19 08:06:26;;;;;;;3.90;2.53;;;;;;;;;;4973104;28;20110;-71
2023/04/19 08:08:52;;;;;;;5.63;2.88;;;;;;;;;;4973002;28;20394;-71
2023/04/19 08:11:17;;;;;;;5.35;2.97;;;;;;;;;;4973074;28;20030;-71
2023/04/19 08:13:43;;;;;;;5.03;2.90;;;;;;;;;;4973099;28;20073;-71
2023/04/19 08:16:08;;;;;;;5.10;3.20;;;;;;;;;;4973049;28;20052;-71
2023/04/19 08:18:34;;;;;;;9.65;3.28;;;;;;;;;;4972900;28;20086;-71
2023/04/19 08:21:00;;;;;;;6.07;3.33;;;;;;;;;;4972784;28;20035;-71
2023/04/19 08:23:25;;;;;;;7.53;3.13;;;;;;;;;;4971482;28;20031;-71
2023/04/19 08:25:51;;;;;;;5.57;3.00;;;;;;;;;;4972915;28;20026;-72
2023/04/19 08:28:17;;;;;;;4.90;2.80;;;;;;;;;;4972436;28;20053;-71
2023/04/19 08:30:42;;;;;;;8.68;3.30;;;;;;;;;;4971331;28;20442;-71
2023/04/19 08:33:08;;;;;;;5.43;2.83;;;;;;;;;;4972734;28;20475;-71
2023/04/19 08:35:35;;;;;;;7.05;2.90;;;;;;;;;;4972366;28;20113;-71
2023/04/19 08:38:01;;;;;;;6.07;3.00;;;;;;;;;;4972655;28;20050;-72
2023/04/19 08:40:29;;;;;;;5.93;3.00;;;;;;;;;;4972702;28;20049;-71
2023/04/19 08:42:55;;;;;;;3.75;2.42;;;;;;;;;;4972615;28;20031;-71
2023/04/19 08:45:27;;;;;;;5.07;2.70;;;;;;;;;;4972429;28;20031;-71
2023/04/19 08:47:53;;;;;;;5.40;2.63;;;;;;;;;;4972026;28;20577;-71
2023/04/19 08:50:20;;;;;;;5.15;2.50;;;;;;;;;;4972420;28;20073;-72
2023/04/19 08:52:46;;;;;;;5.10;2.63;;;;;;;;;;4970525;28;20026;-72
2023/04/19 08:55:12;;;;;;;6.43;2.70;;;;;;;;;;4972675;28;20116;-70
2023/04/19 08:57:37;;;;;;;5.57;2.40;;;;;;;;;;4971147;28;20109;-71
2023/04/19 09:00:06;;;;;;;6.15;2.70;;;;;;;;;;4970480;28;20034;-72
2023/04/19 09:02:52;;;;;;;6.40;2.65;;;;;;;;;;4970251;28;20467;-71
2023/04/19 09:05:18;;;;;;;4.47;2.35;;;;;;;;;;4974046;28;20238;-67
2023/04/19 09:07:47;;;;;;;7.97;2.70;;;;;;;;;;4973604;28;20030;-69
2023/04/19 09:10:18;;;;;;;5.47;2.30;;;;;;;;;;4979886;28;20029;-67
2023/04/19 09:13:00;;;;;;;4.68;2.22;;;;;;;;;;4977773;28;20027;-66
2023/04/19 09:15:36;;;;;;;6.90;2.75;;;;;;;;;;4980122;28;20416;-69
2023/04/19 09:18:06;;;;;;;6.65;2.60;;;;;;;;;;4982481;28;20023;-69
2023/04/19 09:20:36;;;;;;;4.72;2.45;;;;;;;;;;4980291;28;20035;-67
2023/04/19 09:23:07;;;;;;;6.10;2.15;;;;;;;;;;4976308;28;20031;-67
2023/04/19 09:25:34;;;;;;;6.95;2.47;;;;;;;;;;4977936;28;20037;-67
2023/04/19 09:28:13;;;;;;;4.68;2.60;;;;;;;;;;4976898;28;20094;-67
2023/04/19 09:30:39;;;;;;;7.95;2.83;;;;;;;;;;4977159;28;20663;-66
2023/04/19 09:33:05;;;;;;;4.95;2.40;;;;;;;;;;4977751;28;20038;-66
2023/04/19 09:35:44;;;;;;;6.20;2.60;;;;;;;;;;4976097;28;20066;-65
2023/04/19 09:38:10;;;;;;;5.20;2.33;;;;;;;;;;4971640;28;20576;-68
2023/04/19 09:40:37;;;;;;;4.07;2.42;;;;;;;;;;4981541;28;20033;-65
2023/04/19 09:43:03;;;;;;;4.63;2.45;;;;;;;;;;4979767;28;20041;-69
2023/04/19 09:45:48;;;;;;;5.88;2.50;;;;;;;;;;4977279;28;20050;-66
2023/04/19 09:48:14;;;;;;;5.55;2.20;;;;;;;;;;4971011;28;20110;-67
2023/04/19 09:51:05;;;;;;;5.50;2.40;;;;;;;;;;4970234;28;20022;-71
2023/04/19 09:53:35;;;;;;;5.38;2.05;;;;;;;;;;4972159;28;20047;-74
2023/04/19 09:56:01;;;;;;;4.73;2.27;;;;;;;;;;4979425;28;20449;-75
2023/04/19 09:58:26;;;;;;;7.47;2.30;;;;;;;;;;4975747;28;20321;-68
2023/04/19 10:00:53;;;;;;;4.57;2.30;;;;;;;;;;4976943;28;20105;-70
2023/04/19 10:03:20;;;;;;;7.95;2.35;;;;;;;;;;4973334;28;20031;-71
2023/04/19 10:05:47;;;;;;;5.07;2.25;;;;;;;;;;4974834;28;20185;-68
2023/04/19 10:08:13;;;;;;;5.18;2.17;;;;;;;;;;4975327;28;20038;-68
2023/04/19 10:10:40;;;;;;;6.57;2.13;;;;;;;;;;4976022;28;20031;-68
2023/04/19 10:13:09;;;;;;;5.20;2.33;;;;;;;;;;4970474;28;20062;-69
2023/04/19 10:15:36;;;;;;;5.10;1.98;;;;;;;;;;4970396;28;20051;-72
2023/04/19 10:18:03;;;;;;;4.70;2.20;;;;;;;;;;4969073;28;20085;-72
2023/04/19 10:20:29;;;;;;;5.97;2.28;;;;;;;;;;4968848;28;20026;-69
2023/04/19 10:22:54;;;;;;;7.57;2.10;;;;;;;;;;4969092;28;20474;-68
2023/04/19 10:25:28;;;;;;;4.50;1.98;;;;;;;;;;4969565;28;20066;-67
2023/04/19 10:27:54;;;;;;;7.38;2.17;;;;;;;;;;4969236;28;20050;-67
2023/04/19 10:30:21;;;;;;;4.30;2.10;;;;;;;;;;4969038;28;20445;-70
2023/04/19 10:32:58;;;;;;;5.13;2.35;;;;;;;;;;4970149;28;20479;-66
2023/04/19 10:35:33;;;;;;;4.72;2.00;;;;;;;;;;4970557;28;20062;-70
2023/04/19 10:38:12;;;;;;;7.15;2.03;;;;;;;;;;4970562;28;20022;-68
2023/04/19 10:40:55;;;;;;;5.80;1.80;;;;;;;;;;4970339;28;20023;-68
2023/04/19 10:43:24;;;;;;;4.57;1.70;;;;;;;;;;4970440;28;20043;-72
2023/04/19 10:45:50;;;;;;;3.78;1.80;;;;;;;;;;4970201;28;20394;-72
2023/04/19 10:48:25;;;;;;;3.80;2.00;;;;;;;;;;4969835;28;20554;-67
2023/04/19 10:51:15;;;;;;;5.07;1.90;;;;;;;;;;4970344;28;20038;-68
2023/04/19 10:53:54;;;;;;;3.67;1.70;;;;;;;;;;4970405;28;20027;-68
2023/04/19 10:56:32;;;;;;;5.78;1.80;;;;;;;;;;4970464;28;20027;-69
2023/04/19 11:01:39;;;;;;;4.88;1.80;;;;;;;;;;4970234;28;20089;-68
2023/04/19 11:04:15;;;;;;;3.03;1.75;;;;;;;;;;4970462;28;20053;-70
2023/04/19 11:07:03;;;;;;;3.28;1.73;;;;;;;;;;4975038;28;20058;-68
2023/04/19 11:09:35;;;;;;;3.95;1.67;;;;;;;;;;4969686;28;20077;-68
2023/04/19 11:12:12;;;;;;;4.75;1.80;;;;;;;;;;4968779;28;20033;-72
2023/04/19 11:15:02;;;;;;;2.88;1.45;;;;;;;;;;4974088;28;20027;-68
2023/04/19 11:17:31;;;;;;;2.28;1.48;;;;;;;;;;4979471;28;20031;-71
2023/04/19 11:20:00;;;;;;;3.85;1.50;;;;;;;;;;4977151;28;20022;-67
2023/04/19 11:22:34;;;;;;;3.07;1.40;;;;;;;;;;4969938;28;20111;-69
2023/04/19 11:25:11;;;;;;;4.30;1.45;;;;;;;;;;4981371;28;20070;-69
2023/04/19 11:27:38;;;;;;;4.30;1.60;;;;;;;;;;4974189;28;20082;-67
2023/04/19 11:30:10;;;;;;;3.38;1.52;;;;;;;;;;4970122;28;20027;-67
2023/04/19 11:32:35;;;;;;;4.10;1.50;;;;;;;;;;4975075;28;20031;-68
2023/04/19 11:35:06;;;;;;;3.17;1.60;;;;;;;;;;4977307;28;20031;-68
2023/04/19 11:37:33;;;;;;;3.03;1.60;;;;;;;;;;4980307;28;20058;-67
2023/04/19 11:39:59;;;;;;;2.75;1.48;;;;;;;;;;4980430;28;20317;-72
2023/04/19 11:42:24;;;;;;;4.82;1.58;;;;;;;;;;4976314;28;20043;-67
2023/04/19 11:44:51;;;;;;;3.78;1.25;;;;;;;;;;4981176;28;20023;-67
2023/04/19 11:47:18;;;;;;;7.32;1.70;;;;;;;;;;4980251;28;20019;-70
2023/04/19 11:49:43;;;;;;;3.38;1.40;;;;;;;;;;4980055;28;20410;-67
2023/04/19 11:52:09;;;;;;;4.68;1.23;;;;;;;;;;4980720;28;20076;-66
2023/04/19 11:54:34;;;;;;;4.78;1.25;;;;;;;;;;4979136;28;20031;-69
2023/04/19 11:57:02;;;;;;;4.82;1.38;;;;;;;;;;4969928;28;20034;-68
2023/04/19 11:59:27;;;;;;;2.60;1.27;;;;;;;;;;4973247;28;20034;-69
2023/04/19 12:01:53;;;;;;;4.63;1.30;;;;;;;;;;4973249;28;20038;-66
2023/04/19 12:04:19;;;;;;;4.80;1.17;;;;;;;;;;4973353;28;20050;-65
2023/04/19 12:06:54;;;;;;;1.92;0.90;;;;;;;;;;4973003;28;20601;-72
2023/04/19 12:09:21;;;;;;;5.57;1.50;;;;;;;;;;4973156;28;20033;-68
2023/04/19 12:11:49;;;;;;;3.33;1.30;;;;;;;;;;4972982;28;20031;-68
2023/04/19 12:14:18;;;;;;;3.03;1.40;;;;;;;;;;4973114;28;20027;-67
2023/04/19 12:16:44;;;;;;;5.22;1.17;;;;;;;;;;4973144;28;20124;-68
2023/04/19 12:19:18;;;;;;;4.60;1.20;;;;;;;;;;4972781;28;20490;-69
2023/04/19 12:21:45;;;;;;;3.58;1.13;;;;;;;;;;4972735;28;20054;-69
2023/04/19 12:24:13;;;;;;;4.00;1.30;;;;;;;;;;4972942;28;20505;-71
2023/04/19 12:26:59;;;;;;;2.65;1.23;;;;;;;;;;4972853;28;20051;-71
2023/04/19 12:29:25;;;;;;;3.00;1.38;;;;;;;;;;4972572;28;20538;-69
2023/04/19 12:31:51;;;;;;;4.53;1.35;;;;;;;;;;4972911;28;20039;-72
2023/04/19 12:34:16;;;;;;;4.80;1.60;;;;;;;;;;4972439;28;20632;-69
2023/04/19 12:36:41;;;;;;;5.25;1.75;;;;;;;;;;4972513;28;20023;-70
2023/04/19 12:39:08;;;;;;;5.50;1.75;;;;;;;;;;4972656;28;20380;-71
2023/04/19 12:41:33;;;;;;;3.80;1.50;;;;;;;;;;4977462;28;20030;-71
2023/04/19 12:43:58;;;;;;;3.75;1.40;;;;;;;;;;4993356;28;20014;-71
2023/04/19 12:46:24;;;;;;;5.28;1.65;;;;;;;;;;5003313;28;20210;-71
2023/04/19 12:48:49;;;;;;;3.67;1.40;;;;;;;;;;4999626;28;20029;-71
2023/04/19 12:51:14;;;;;;;1.98;1.10;;;;;;;;;;4991628;28;20590;-70
2023/04/19 12:53:41;;;;;;;4.65;1.67;;;;;;;;;;4990892;28;20076;-73
2023/04/19 12:56:06;;;;;;;1.88;1.17;;;;;;;;;;4991137;28;20049;-72
2023/04/19 12:58:32;;;;;;;2.67;1.08;;;;;;;;;;4991511;28;20030;-71
2023/04/19 13:00:57;;;;;;;4.30;1.27;;;;;;;;;;4991643;28;20073;-71
2023/04/19 13:03:22;;;;;;;4.13;1.23;;;;;;;;;;4991632;28;20038;-72
2023/04/19 13:05:48;;;;;;;1.95;1.10;;;;;;;;;;4991410;28;20107;-72
2023/04/19 13:08:13;;;;;;;2.53;1.20;;;;;;;;;;4991692;28;20049;-72
2023/04/19 13:10:38;;;;;;;5.38;1.27;;;;;;;;;;4990572;28;20061;-74
2023/04/19 13:13:04;;;;;;;4.57;1.55;;;;;;;;;;4991375;28;20022;-71
2023/04/19 13:15:29;;;;;;;3.05;1.40;;;;;;;;;;4991460;28;20037;-72
2023/04/19 13:17:55;;;;;;;1.90;1.13;;;;;;;;;;4990113;28;20680;-72
2023/04/19 13:20:21;;;;;;;2.45;1.27;;;;;;;;;;4991216;28;20053;-74
2023/04/19 13:22:46;;;;;;;3.53;1.30;;;;;;;;;;4991221;28;20034;-74
2023/04/19 13:25:12;;;;;;;2.78;1.30;;;;;;;;;;4991187;28;20030;-77
2023/04/19 13:27:37;;;;;;;3.03;1.10;;;;;;;;;;4991285;28;20088;-71
2023/04/19 13:30:03;;;;;;;1.85;1.20;;;;;;;;;;4991023;28;20470;-72
2023/04/19 13:32:29;;;;;;;2.00;1.20;;;;;;;;;;4991093;28;20567;-72
2023/04/19 13:34:54;;;;;;;2.15;1.10;;;;;;;;;;5000489;28;20077;-73
2023/04/19 13:37:19;;;;;;;2.38;1.15;;;;;;;;;;4995160;28;20165;-72
2023/04/19 13:39:45;;;;;;;2.35;1.20;;;;;;;;;;4992340;28;20389;-70
2023/04/19 13:42:11;;;;;;;4.05;1.20;;;;;;;;;;4993492;28;20316;-74
2023/04/19 13:44:36;;;;;;;2.53;1.15;;;;;;;;;;4994619;28;20026;-73
2023/04/19 13:47:05;;;;;;;3.33;1.30;;;;;;;;;;5001557;28;20029;-75
2023/04/19 13:49:30;;;;;;;2.83;1.35;;;;;;;;;;4994027;28;20056;-75
2023/04/19 13:51:56;;;;;;;3.72;1.20;;;;;;;;;;4995348;28;20394;-74
2023/04/19 13:54:21;;;;;;;3.28;1.30;;;;;;;;;;4990669;28;20474;-74
2023/04/19 13:56:47;;;;;;;2.28;1.30;;;;;;;;;;5000104;28;20225;-73
2023/04/19 13:59:14;;;;;;;3.30;1.20;;;;;;;;;;5001972;28;20029;-77
2023/04/19 14:01:40;;;;;;;2.53;1.25;;;;;;;;;;4998574;28;20034;-73
2023/04/19 14:04:06;;;;;;;2.17;1.27;;;;;;;;;;4992525;28;20053;-75
2023/04/19 14:06:31;;;;;;;3.22;1.17;;;;;;;;;;4992909;28;20030;-74
2023/04/19 14:08:57;;;;;;;3.53;1.23;;;;;;;;;;4990341;28;20054;-78
2023/04/19 14:11:24;;;;;;;3.08;1.27;;;;;;;;;;4993991;28;20037;-75
2023/04/19 14:13:50;;;;;;;2.63;1.20;;;;;;;;;;4995463;28;20306;-74
2023/04/19 14:16:15;;;;;;;3.47;1.20;;;;;;;;;;4997858;28;20057;-77
2023/04/19 14:18:41;;;;;;;4.28;1.40;;;;;;;;;;4993466;28;20033;-87
2023/04/19 14:21:06;;;;;;;3.35;1.50;;;;;;;;;;5001392;28;20029;-88
2023/04/19 14:23:32;;;;;;;6.22;2.10;;;;;;;;;;4994579;28;20030;-75
2023/04/19 14:25:58;;;;;;;4.07;1.50;;;;;;;;;;4990013;28;20064;-75
2023/04/19 14:28:24;;;;;;;2.53;1.27;;;;;;;;;;4990255;28;20078;-76
2023/04/19 14:30:49;;;;;;;3.30;1.33;;;;;;;;;;4992060;28;20361;-75
2023/04/19 14:33:15;;;;;;;2.90;1.30;;;;;;;;;;4996119;28;20042;-75
2023/04/19 14:35:41;;;;;;;1.88;1.02;;;;;;;;;;4998246;28;20033;-75
2023/04/19 14:38:06;;;;;;;4.60;1.40;;;;;;;;;;5000250;28;20050;-77
2023/04/19 14:40:32;;;;;;;2.95;1.20;;;;;;;;;;4991026;28;20036;-74
2023/04/19 14:42:57;;;;;;;2.10;1.30;;;;;;;;;;4989740;28;20110;-76
2023/04/19 14:45:23;;;;;;;3.92;1.30;;;;;;;;;;4990008;28;20119;-74